Terminal Aerodrome Forecast
Issued by NWS Wilmington, OH

Current Version | Previous Version | Text Only | Print | Product List | Glossary Off
Versions: 1 2 3 4 5 6 7 8 9 10 11 12 13 14 15 16 17 18 19

000
FTUS41 KILN 251700
TAFDAY
TAF
KDAY 251740Z 2518/2618 08006KT 5SM -RA BR OVC030
      TEMPO 2518/2521 2SM -RASN OVC012
     FM252100 05008KT 4SM -RASN OVC015
      TEMPO 2522/2601 1/2SM SN OVC006
     FM260100 04015G23KT 3/4SM -SN OVC006
     FM260300 02015G23KT 3SM -SN SCT015 OVC022
      TEMPO 2609/2611 P6SM NSW OVC015
     FM261100 36013KT P6SM OVC012
     FM261400 35010KT P6SM OVC010=

USA.gov is the U.S. government's official web portal to all federal, state and local government web resources and services.